createdAt,value
2023-03-21T00:00:16.381Z,3.28
2023-03-21T00:02:42.874Z,3.47
2023-03-21T00:05:15.835Z,3.90
2023-03-21T00:07:42.800Z,3.78
2023-03-21T00:10:16.501Z,3.88
2023-03-21T00:12:44.826Z,3.30
2023-03-21T00:15:12.984Z,3.83
2023-03-21T00:17:39.784Z,3.80
2023-03-21T00:20:08.306Z,4.40
2023-03-21T00:22:35.796Z,4.40
2023-03-21T00:25:02.718Z,3.78
2023-03-21T00:27:47.509Z,4.00
2023-03-21T00:30:16.257Z,4.28
2023-03-21T00:32:55.151Z,3.80
2023-03-21T00:35:53.449Z,3.13
2023-03-21T00:38:09.776Z,3.70
2023-03-21T00:40:43.785Z,3.55
2023-03-21T00:43:19.492Z,3.30
2023-03-21T00:45:46.837Z,3.17
2023-03-21T00:48:13.950Z,2.97
2023-03-21T00:50:42.162Z,3.33
2023-03-21T00:53:08.900Z,2.90
2023-03-21T00:55:35.699Z,3.63
2023-03-21T00:58:02.779Z,3.33
2023-03-21T01:00:30.013Z,3.30
2023-03-21T01:03:14.133Z,2.90
2023-03-21T01:06:09.976Z,3.33
2023-03-21T01:08:53.209Z,3.55
2023-03-21T01:11:24.677Z,3.50
2023-03-21T01:13:57.935Z,3.58
2023-03-21T01:20:21.680Z,3.08
2023-03-21T01:22:48.089Z,3.35
2023-03-21T01:25:22.453Z,3.40
2023-03-21T01:30:21.544Z,3.65
2023-03-21T01:32:50.099Z,4.03
2023-03-21T01:35:16.620Z,3.40
2023-03-21T01:37:43.581Z,4.22
2023-03-21T01:40:18.165Z,3.72
2023-03-21T01:42:44.627Z,3.58
2023-03-21T01:45:48.210Z,3.60
2023-03-21T01:48:15.779Z,3.65
2023-03-21T01:50:43.223Z,3.25
2023-03-21T01:53:10.800Z,3.63
2023-03-21T01:55:38.286Z,4.03
2023-03-21T01:58:07.713Z,3.60
2023-03-21T02:00:36.438Z,4.03
2023-03-21T02:03:15.310Z,3.10
2023-03-21T02:05:55.883Z,4.60
2023-03-21T02:08:30.554Z,3.55
2023-03-21T02:11:05.218Z,3.72
2023-03-21T02:13:31.719Z,3.80
2023-03-21T02:16:05.759Z,4.50
2023-03-21T02:18:48.111Z,3.92
2023-03-21T02:21:33.365Z,3.45
2023-03-21T02:24:12.881Z,3.28
2023-03-21T02:27:03.965Z,3.58
2023-03-21T02:29:55.794Z,3.78
2023-03-21T02:32:41.671Z,3.45
2023-03-21T02:35:08.030Z,3.33
2023-03-21T02:37:55.237Z,3.33
2023-03-21T02:40:35.506Z,3.72
2023-03-21T02:43:22.167Z,3.50
2023-03-21T02:45:58.381Z,3.63
2023-03-21T02:48:44.395Z,3.10
2023-03-21T02:51:15.831Z,3.13
2023-03-21T02:53:49.618Z,3.33
2023-03-21T02:58:44.459Z,3.10
2023-03-21T03:01:11.026Z,2.90
2023-03-21T03:03:39.476Z,3.03
2023-03-21T03:06:29.310Z,3.17
2023-03-21T03:09:38.698Z,3.08
2023-03-21T03:12:17.178Z,3.22
2023-03-21T03:15:03.472Z,3.50
2023-03-21T03:17:42.953Z,3.30
2023-03-21T03:20:41.071Z,3.15
2023-03-21T03:23:28.162Z,3.60
2023-03-21T03:26:00.734Z,3.67
2023-03-21T03:28:34.412Z,4.20
2023-03-21T03:31:09.140Z,3.10
2023-03-21T03:33:41.438Z,3.03
2023-03-21T03:36:18.796Z,3.03
2023-03-21T03:38:57.639Z,3.25
2023-03-21T03:41:27.077Z,3.72
2023-03-21T03:43:57.794Z,3.63
2023-03-21T03:46:31.789Z,3.53
2023-03-21T03:49:07.370Z,3.08
2023-03-21T03:51:43.932Z,3.17
2023-03-21T03:54:19.525Z,3.17
2023-03-21T03:56:46.850Z,3.17
2023-03-21T03:59:19.424Z,3.40
2023-03-21T04:01:46.112Z,3.35
2023-03-21T04:04:16.738Z,3.83
2023-03-21T04:06:51.540Z,3.80
2023-03-21T04:11:51.596Z,3.85
2023-03-21T04:14:18.029Z,4.10
2023-03-21T04:16:44.754Z,3.58
2023-03-21T04:19:11.154Z,3.92
2023-03-21T04:21:37.948Z,4.40
2023-03-21T04:24:04.921Z,4.75
2023-03-21T04:26:33.560Z,4.47
2023-03-21T04:29:00.855Z,4.30
2023-03-21T04:31:30.998Z,4.30
2023-03-21T04:33:59.540Z,4.05
2023-03-21T04:36:28.668Z,4.07
2023-03-21T04:39:01.589Z,4.25
2023-03-21T04:41:28.859Z,5.25
2023-03-21T04:43:56.028Z,4.95
2023-03-21T04:46:23.140Z,4.18
2023-03-21T04:48:49.680Z,4.63
2023-03-21T04:51:16.523Z,4.72
2023-03-21T04:53:45.745Z,4.85
2023-03-21T04:56:12.394Z,4.30
2023-03-21T04:58:40.617Z,4.82
2023-03-21T05:01:08.169Z,4.45
2023-03-21T05:03:39.846Z,3.75
2023-03-21T05:06:08.582Z,4.13
2023-03-21T05:08:38.336Z,3.65
2023-03-21T05:11:05.521Z,4.38
2023-03-21T05:13:31.946Z,3.70
2023-03-21T05:15:58.330Z,3.35
2023-03-21T05:18:25.054Z,3.72
2023-03-21T05:20:54.138Z,4.10
2023-03-21T05:23:24.304Z,4.22
2023-03-21T05:25:51.135Z,4.88
2023-03-21T05:28:20.372Z,4.43
2023-03-21T05:30:47.108Z,4.45
2023-03-21T05:33:13.821Z,4.05
2023-03-21T05:35:40.678Z,4.13
2023-03-21T05:38:07.311Z,4.05
2023-03-21T05:40:33.719Z,4.05
2023-03-21T05:43:00.431Z,3.95
2023-03-21T05:45:27.273Z,5.32
2023-03-21T05:47:53.781Z,4.22
2023-03-21T05:50:20.365Z,4.40
2023-03-21T05:52:46.804Z,4.53
2023-03-21T05:55:13.496Z,4.40
2023-03-21T05:57:41.003Z,4.97
2023-03-21T06:00:08.728Z,4.18
2023-03-21T06:02:35.320Z,4.07
2023-03-21T06:05:01.863Z,5.20
2023-03-21T06:07:28.257Z,4.72
2023-03-21T06:09:54.776Z,4.68
2023-03-21T06:12:21.322Z,3.88
2023-03-21T06:14:47.681Z,4.10
2023-03-21T06:17:14.123Z,4.40
2023-03-21T06:19:40.577Z,4.15
2023-03-21T06:22:07.432Z,5.72
2023-03-21T06:24:33.811Z,14.93
2023-03-21T06:27:01.898Z,22.98
2023-03-21T06:29:29.343Z,11.80
2023-03-21T06:31:57.122Z,4.82
2023-03-21T06:34:23.562Z,4.07
2023-03-21T06:36:52.061Z,4.57
2023-03-21T06:39:18.542Z,4.30
2023-03-21T06:41:45.021Z,3.72
2023-03-21T06:44:11.612Z,4.53
2023-03-21T06:46:38.088Z,4.47
2023-03-21T06:49:04.721Z,4.90
2023-03-21T06:51:31.435Z,4.30
2023-03-21T06:53:57.852Z,4.18
2023-03-21T06:56:24.269Z,3.83
2023-03-21T06:58:50.827Z,4.20
2023-03-21T07:01:17.322Z,3.88
2023-03-21T07:03:43.972Z,4.25
2023-03-21T07:06:11.904Z,4.25
2023-03-21T07:08:39.419Z,3.70
2023-03-21T07:11:06.449Z,4.07
2023-03-21T07:13:33.685Z,4.18
2023-03-21T07:16:00.536Z,4.28
2023-03-21T07:18:27.308Z,3.90
2023-03-21T07:20:53.823Z,3.88
2023-03-21T07:23:22.439Z,3.88
2023-03-21T07:25:50.940Z,4.40
2023-03-21T07:28:18.044Z,3.50
2023-03-21T07:30:45.811Z,3.47
2023-03-21T07:33:12.982Z,3.47
2023-03-21T07:35:39.715Z,3.67
2023-03-21T07:38:06.708Z,3.00
2023-03-21T07:40:33.508Z,3.67
2023-03-21T07:43:00.146Z,2.70
2023-03-21T07:45:27.367Z,3.20
2023-03-21T07:47:54.468Z,2.83
2023-03-21T07:50:20.995Z,3.00
2023-03-21T07:52:47.667Z,3.40
2023-03-21T07:55:14.127Z,2.80
2023-03-21T07:57:41.040Z,3.33
2023-03-21T08:00:08.533Z,2.75
2023-03-21T08:02:35.021Z,3.05
2023-03-21T08:05:01.478Z,2.40
2023-03-21T08:07:27.928Z,2.35
2023-03-21T08:09:54.663Z,2.55
2023-03-21T08:12:21.144Z,2.53
2023-03-21T08:14:47.780Z,2.33
2023-03-21T08:17:14.226Z,2.40
2023-03-21T08:19:40.815Z,2.28
2023-03-21T08:22:07.272Z,2.10
2023-03-21T08:24:34.105Z,2.35
2023-03-21T08:27:01.576Z,2.22
2023-03-21T08:29:28.270Z,2.20
2023-03-21T08:31:54.714Z,2.00
2023-03-21T08:34:22.998Z,1.70
2023-03-21T08:36:49.874Z,1.90
2023-03-21T08:39:16.223Z,1.90
2023-03-21T08:41:42.687Z,2.13
2023-03-21T08:44:10.680Z,1.70
2023-03-21T08:46:37.203Z,1.42
2023-03-21T08:49:03.641Z,1.55
2023-03-21T08:51:30.026Z,2.25
2023-03-21T08:53:56.657Z,2.03
2023-03-21T08:56:23.117Z,2.03
2023-03-21T08:58:49.864Z,2.03
2023-03-21T09:03:43.528Z,1.70
2023-03-21T09:06:13.399Z,1.50
2023-03-21T09:08:42.186Z,1.88
2023-03-21T09:11:10.384Z,2.10
2023-03-21T09:13:36.955Z,1.60
2023-03-21T09:16:05.222Z,1.60
2023-03-21T09:18:47.461Z,1.65
2023-03-21T09:21:16.504Z,1.38
2023-03-21T09:23:45.001Z,1.70
2023-03-21T09:26:12.557Z,2.00
2023-03-21T09:28:40.499Z,1.92
2023-03-21T09:31:11.576Z,2.50
2023-03-21T09:33:42.430Z,2.08
2023-03-21T09:36:12.089Z,2.45
2023-03-21T09:38:40.601Z,1.88
2023-03-21T09:41:29.999Z,2.60
2023-03-21T09:44:08.067Z,2.25
2023-03-21T09:47:05.375Z,2.53
2023-03-21T09:49:38.246Z,2.22
2023-03-21T09:52:16.192Z,2.15
2023-03-21T09:54:44.665Z,2.80
2023-03-21T09:57:38.058Z,2.20
2023-03-21T10:00:09.313Z,2.70
2023-03-21T10:02:39.472Z,2.85
2023-03-21T10:05:20.982Z,2.50
2023-03-21T10:07:52.971Z,2.70
2023-03-21T10:10:27.838Z,2.53
2023-03-21T10:12:56.293Z,1.88
2023-03-21T10:15:25.920Z,2.22
2023-03-21T10:18:02.058Z,2.50
2023-03-21T10:20:37.053Z,2.45
2023-03-21T10:23:06.946Z,2.25
2023-03-21T10:25:41.099Z,2.38
2023-03-21T10:28:13.530Z,2.40
2023-03-21T10:30:48.791Z,2.00
2023-03-21T10:33:23.221Z,2.20
2023-03-21T10:35:53.629Z,2.25
2023-03-21T10:38:23.310Z,2.10
2023-03-21T10:40:50.237Z,2.53
2023-03-21T10:43:25.812Z,3.25
2023-03-21T10:45:54.134Z,2.00
2023-03-21T10:48:21.698Z,2.08
2023-03-21T10:50:51.707Z,2.38
2023-03-21T10:53:22.677Z,2.47
2023-03-21T10:55:54.251Z,2.42
2023-03-21T10:58:27.244Z,2.50
2023-03-21T11:01:00.799Z,1.95
2023-03-21T11:03:31.420Z,2.92
2023-03-21T11:06:28.377Z,2.42
2023-03-21T11:09:00.413Z,2.55
2023-03-21T11:11:33.252Z,2.45
2023-03-21T11:14:06.851Z,2.85
2023-03-21T11:16:41.072Z,2.70
2023-03-21T11:19:17.370Z,3.10
2023-03-21T11:21:44.895Z,2.95
2023-03-21T11:24:16.126Z,2.22
2023-03-21T11:26:48.159Z,2.08
2023-03-21T11:29:34.655Z,2.17
2023-03-21T11:32:13.226Z,2.72
2023-03-21T11:34:47.693Z,2.30
2023-03-21T11:37:46.373Z,2.13
2023-03-21T11:40:19.404Z,2.20
2023-03-21T11:42:51.997Z,2.88
2023-03-21T11:45:22.592Z,2.92
2023-03-21T11:47:51.233Z,2.67
2023-03-21T11:50:27.540Z,3.50
2023-03-21T11:53:06.166Z,2.83
2023-03-21T11:56:03.823Z,2.70
2023-03-21T11:58:52.233Z,3.00
2023-03-21T12:01:24.524Z,2.58
2023-03-21T12:04:04.353Z,2.70
2023-03-21T12:06:55.007Z,2.47
2023-03-21T12:09:39.880Z,2.40
2023-03-21T12:12:39.906Z,2.15
2023-03-21T12:15:31.106Z,2.33
2023-03-21T12:18:29.289Z,2.05
2023-03-21T12:21:04.174Z,2.00
2023-03-21T12:23:39.969Z,1.67
2023-03-21T12:26:19.473Z,2.00
2023-03-21T12:29:19.681Z,2.75
2023-03-21T12:32:16.049Z,2.25
2023-03-21T12:35:09.516Z,2.20
2023-03-21T12:38:03.944Z,1.98
2023-03-21T12:40:42.198Z,1.88
2023-03-21T12:43:42.668Z,1.95
2023-03-21T12:46:34.741Z,1.60
2023-03-21T12:49:07.150Z,1.50
2023-03-21T12:51:39.976Z,2.05
2023-03-21T12:54:35.030Z,1.85
2023-03-21T12:57:19.514Z,1.33
2023-03-21T12:59:50.023Z,1.52
2023-03-21T13:02:31.118Z,1.77
2023-03-21T13:05:06.671Z,1.80
2023-03-21T13:07:38.999Z,1.50
2023-03-21T13:10:17.909Z,1.50
2023-03-21T13:13:10.061Z,1.50
2023-03-21T13:15:48.829Z,1.60
2023-03-21T13:18:37.921Z,1.35
2023-03-21T13:21:31.703Z,1.70
2023-03-21T13:24:19.113Z,1.58
2023-03-21T13:26:52.235Z,1.52
2023-03-21T13:29:29.258Z,1.58
2023-03-21T13:32:06.564Z,1.45
2023-03-21T13:34:33.169Z,1.80
2023-03-21T13:37:01.369Z,1.38
2023-03-21T13:39:29.301Z,1.50
2023-03-21T13:42:03.680Z,1.40
2023-03-21T13:44:43.582Z,1.75
2023-03-21T13:47:30.687Z,1.75
2023-03-21T13:50:22.097Z,1.23
2023-03-21T13:53:04.076Z,1.30
2023-03-21T13:55:41.665Z,0.95
2023-03-21T13:58:34.828Z,1.13
2023-03-21T14:01:10.806Z,1.42
2023-03-21T14:03:39.164Z,2.45
2023-03-21T14:06:06.874Z,1.52
2023-03-21T14:08:37.656Z,0.98
2023-03-21T14:11:10.029Z,0.90
2023-03-21T14:13:48.348Z,0.90
2023-03-21T14:18:54.474Z,1.08
2023-03-21T14:21:50.189Z,1.00
2023-03-21T14:24:17.963Z,0.90
2023-03-21T14:26:49.126Z,1.10
2023-03-21T14:29:35.216Z,0.93
2023-03-21T14:32:03.317Z,0.93
2023-03-21T14:34:33.435Z,0.90
2023-03-21T14:37:00.068Z,0.93
2023-03-21T14:39:29.750Z,0.93
2023-03-21T14:42:03.148Z,0.82
2023-03-21T14:44:58.101Z,0.75
2023-03-21T14:47:27.917Z,1.00
2023-03-21T14:49:55.664Z,0.77
2023-03-21T14:52:30.108Z,0.75
2023-03-21T14:54:57.010Z,0.82
2023-03-21T14:57:28.797Z,0.80
2023-03-21T15:00:00.138Z,0.90
2023-03-21T15:02:31.097Z,0.75
2023-03-21T15:05:05.487Z,0.70
2023-03-21T15:07:34.287Z,0.80
2023-03-21T15:10:05.527Z,0.82
2023-03-21T15:12:33.408Z,0.80
2023-03-21T15:15:01.659Z,0.70
2023-03-21T15:17:29.243Z,0.85
2023-03-21T15:19:55.922Z,0.77
2023-03-21T15:22:54.164Z,0.85
2023-03-21T15:25:27.788Z,0.88
2023-03-21T15:27:56.102Z,0.75
2023-03-21T15:30:26.199Z,0.85
2023-03-21T15:32:53.712Z,0.80
2023-03-21T15:35:25.949Z,0.90
2023-03-21T15:37:56.670Z,0.82
2023-03-21T15:40:31.708Z,1.20
2023-03-21T15:43:07.357Z,1.10
2023-03-21T15:45:34.134Z,0.90
2023-03-21T15:48:03.407Z,0.70
2023-03-21T15:50:41.590Z,0.98
2023-03-21T15:53:14.952Z,0.80
2023-03-21T15:55:48.223Z,0.90
2023-03-21T15:58:19.678Z,0.90
2023-03-21T16:00:57.457Z,0.85
2023-03-21T16:03:27.571Z,0.90
2023-03-21T16:06:15.522Z,1.00
2023-03-21T16:08:44.697Z,1.10
2023-03-21T16:11:19.136Z,0.90
2023-03-21T16:13:46.148Z,1.48
2023-03-21T16:16:19.762Z,0.90
2023-03-21T16:18:46.352Z,1.00
2023-03-21T16:21:14.667Z,0.90
2023-03-21T16:23:41.736Z,1.00
2023-03-21T16:26:14.166Z,1.02
2023-03-21T16:28:40.635Z,1.10
2023-03-21T16:31:17.608Z,0.90
2023-03-21T16:33:44.848Z,1.20
2023-03-21T16:36:29.199Z,1.00
2023-03-21T16:38:55.953Z,1.13
2023-03-21T16:41:24.277Z,1.20
2023-03-21T16:43:52.190Z,0.85
2023-03-21T16:46:26.126Z,1.00
2023-03-21T16:48:56.310Z,1.10
2023-03-21T16:51:31.457Z,1.05
2023-03-21T16:53:58.299Z,1.45
2023-03-21T16:56:27.200Z,0.90
2023-03-21T16:58:54.688Z,1.20
2023-03-21T17:03:53.417Z,1.10
2023-03-21T17:06:25.324Z,1.20
2023-03-21T17:08:53.579Z,1.10
2023-03-21T17:11:23.226Z,1.42
2023-03-21T17:13:52.087Z,1.20
2023-03-21T17:16:23.818Z,0.98
2023-03-21T17:18:51.742Z,1.10
2023-03-21T17:21:20.746Z,1.10
2023-03-21T17:23:47.810Z,0.90
2023-03-21T17:26:23.645Z,1.10
2023-03-21T17:28:50.573Z,1.10
2023-03-21T17:31:19.480Z,1.10
2023-03-21T17:33:46.673Z,2.95
2023-03-21T17:36:18.942Z,2.58
2023-03-21T17:38:46.014Z,1.40
2023-03-21T17:41:14.512Z,1.48
2023-03-21T17:43:41.380Z,1.85
2023-03-21T17:46:13.251Z,3.10
2023-03-21T17:48:39.984Z,2.50
2023-03-21T17:51:06.749Z,2.65
2023-03-21T17:53:33.211Z,2.13
2023-03-21T17:56:00.267Z,1.60
2023-03-21T17:58:26.752Z,1.42
2023-03-21T18:00:53.439Z,1.10
2023-03-21T18:03:20.279Z,1.13
2023-03-21T18:05:46.739Z,1.20
2023-03-21T18:08:13.300Z,1.35
2023-03-21T18:10:41.095Z,1.40
2023-03-21T18:13:08.125Z,1.20
2023-03-21T18:15:35.974Z,1.50
2023-03-21T18:18:04.495Z,1.80
2023-03-21T18:20:57.961Z,2.00
2023-03-21T18:23:19.084Z,2.00
2023-03-21T18:25:45.563Z,2.15
2023-03-21T18:28:12.996Z,2.67
2023-03-21T18:33:27.334Z,1.88
2023-03-21T18:35:58.976Z,1.55
2023-03-21T18:38:27.542Z,1.40
2023-03-21T18:40:54.521Z,1.65
2023-03-21T18:46:08.640Z,1.60
2023-03-21T18:48:35.612Z,2.00
2023-03-21T18:51:02.929Z,1.60
2023-03-21T18:53:29.864Z,1.40
2023-03-21T18:55:57.533Z,1.50
2023-03-21T18:58:25.455Z,1.40
2023-03-21T19:00:53.688Z,1.60
2023-03-21T19:03:34.323Z,1.40
2023-03-21T19:06:03.671Z,1.60
2023-03-21T19:08:32.402Z,1.70
2023-03-21T19:11:03.764Z,1.60
2023-03-21T19:13:33.391Z,1.80
2023-03-21T19:16:02.461Z,2.00
2023-03-21T19:18:49.926Z,5.32
2023-03-21T19:21:19.916Z,4.68
2023-03-21T19:26:33.873Z,3.47
2023-03-21T19:29:00.376Z,3.05
2023-03-21T19:31:27.182Z,4.45
2023-03-21T19:33:53.980Z,3.65
2023-03-21T19:36:22.938Z,3.17
2023-03-21T19:38:49.905Z,3.25
2023-03-21T19:41:16.830Z,3.70
2023-03-21T19:43:53.129Z,5.70
2023-03-21T19:46:23.109Z,7.50
2023-03-21T19:48:50.126Z,8.18
2023-03-21T19:51:32.904Z,9.88
2023-03-21T19:54:03.264Z,9.10
2023-03-21T19:56:31.626Z,6.13
2023-03-21T19:58:58.643Z,5.63
2023-03-21T20:01:25.614Z,4.38
2023-03-21T20:03:52.166Z,3.40
2023-03-21T20:06:19.056Z,3.80
2023-03-21T20:11:32.557Z,4.43
2023-03-21T20:13:59.834Z,4.75
2023-03-21T20:16:33.639Z,4.75
2023-03-21T20:21:33.831Z,4.93
2023-03-21T20:24:06.981Z,4.80
2023-03-21T20:26:34.177Z,4.63
2023-03-21T20:29:33.948Z,3.72
2023-03-21T20:31:47.519Z,3.75
2023-03-21T20:34:14.211Z,3.47
2023-03-21T20:36:43.427Z,3.65
2023-03-21T20:39:10.200Z,4.60
2023-03-21T20:41:36.842Z,3.58
2023-03-21T20:46:50.542Z,3.55
2023-03-21T20:49:17.105Z,3.50
2023-03-21T20:54:30.334Z,2.85
2023-03-21T20:56:57.204Z,3.10
2023-03-21T20:59:27.567Z,3.35
2023-03-21T21:01:55.719Z,4.10
2023-03-21T21:04:23.120Z,5.22
2023-03-21T21:06:53.813Z,4.88
2023-03-21T21:09:20.876Z,5.05
2023-03-21T21:12:06.233Z,4.25
2023-03-21T21:14:35.727Z,3.22
2023-03-21T21:17:15.478Z,4.18
2023-03-21T21:19:49.946Z,3.42
2023-03-21T21:22:17.339Z,3.65
2023-03-21T21:24:44.646Z,3.58
2023-03-21T21:27:11.877Z,3.17
2023-03-21T21:29:38.423Z,3.30
2023-03-21T21:32:05.291Z,2.47
2023-03-21T21:34:32.161Z,3.17
2023-03-21T21:36:58.542Z,2.85
2023-03-21T21:39:26.648Z,2.60
2023-03-21T21:41:54.065Z,2.13
2023-03-21T21:44:20.718Z,2.42
2023-03-21T21:46:47.606Z,2.40
2023-03-21T21:49:14.097Z,3.20
2023-03-21T21:51:41.789Z,3.72
2023-03-21T21:56:38.491Z,4.50
2023-03-21T21:59:05.471Z,3.47
2023-03-21T22:01:38.501Z,3.50
2023-03-21T22:04:08.286Z,3.30
2023-03-21T22:06:34.996Z,3.22
2023-03-21T22:09:06.927Z,3.40
2023-03-21T22:11:33.702Z,3.45
2023-03-21T22:14:00.083Z,3.22
2023-03-21T22:16:26.589Z,3.75
2023-03-21T22:18:53.056Z,4.35
2023-03-21T22:21:19.487Z,3.63
2023-03-21T22:23:45.984Z,3.90
2023-03-21T22:26:12.673Z,3.90
2023-03-21T22:28:42.172Z,4.00
2023-03-21T22:31:14.499Z,3.83
2023-03-21T22:33:41.891Z,3.97
2023-03-21T22:36:09.108Z,4.57
2023-03-21T22:38:38.178Z,4.55
2023-03-21T22:41:05.927Z,4.90
2023-03-21T22:43:34.171Z,4.22
2023-03-21T22:46:04.697Z,4.22
2023-03-21T22:48:31.763Z,3.92
2023-03-21T22:50:59.596Z,4.10
2023-03-21T22:55:52.855Z,4.10
2023-03-21T22:58:19.255Z,3.53
2023-03-21T23:00:45.896Z,3.72
2023-03-21T23:03:14.625Z,3.85
2023-03-21T23:05:41.390Z,3.55
2023-03-21T23:08:08.409Z,4.15
2023-03-21T23:10:38.070Z,4.05
2023-03-21T23:13:04.734Z,4.53
2023-03-21T23:15:31.193Z,4.80
2023-03-21T23:17:57.535Z,4.68
2023-03-21T23:20:23.977Z,4.30
2023-03-21T23:22:50.530Z,4.32
2023-03-21T23:25:16.960Z,4.85
2023-03-21T23:27:43.363Z,4.78
2023-03-21T23:30:10.176Z,4.82
2023-03-21T23:32:36.857Z,4.57
2023-03-21T23:35:03.590Z,4.57
2023-03-21T23:37:30.080Z,3.85
2023-03-21T23:39:56.554Z,4.03
2023-03-21T23:42:24.042Z,4.50
2023-03-21T23:44:50.760Z,4.13
2023-03-21T23:47:17.380Z,4.55
2023-03-21T23:49:49.174Z,4.60
2023-03-21T23:52:16.641Z,4.82
2023-03-21T23:54:43.315Z,4.72
2023-03-21T23:57:10.334Z,4.50
2023-03-21T23:59:36.738Z,4.57
